createdAt,value
2023-05-23T00:00:52.081Z,24.07
2023-05-23T00:05:56.520Z,24.05
2023-05-23T00:11:00.835Z,23.98
2023-05-23T00:16:04.617Z,23.98
2023-05-23T00:21:07.783Z,23.97
2023-05-23T00:26:11.964Z,23.96
2023-05-23T00:31:19.226Z,23.94
2023-05-23T00:36:24.252Z,23.94
2023-05-23T00:41:30.525Z,23.93
2023-05-23T00:46:33.908Z,23.90
2023-05-23T00:51:37.198Z,23.91
2023-05-23T00:56:41.372Z,23.91
2023-05-23T01:01:47.753Z,23.90
2023-05-23T01:06:50.565Z,23.86
2023-05-23T01:12:00.352Z,23.82
2023-05-23T01:17:06.251Z,23.79
2023-05-23T01:22:13.144Z,23.74
2023-05-23T01:27:21.949Z,23.71
2023-05-23T01:32:26.559Z,23.66
2023-05-23T01:37:29.771Z,23.62
2023-05-23T01:42:32.708Z,23.59
2023-05-23T01:47:37.039Z,23.57
2023-05-23T01:52:40.476Z,23.55
2023-05-23T01:57:43.285Z,23.51
2023-05-23T02:02:47.701Z,23.50
2023-05-23T02:07:52.839Z,23.49
2023-05-23T02:12:55.786Z,23.47
2023-05-23T02:18:00.020Z,23.44
2023-05-23T02:23:02.941Z,23.41
2023-05-23T02:28:05.849Z,23.36
2023-05-23T02:33:10.874Z,23.32
2023-05-23T02:38:13.861Z,23.31
2023-05-23T02:43:18.002Z,23.30
2023-05-23T02:48:22.371Z,23.27
2023-05-23T02:53:27.124Z,23.25
2023-05-23T02:58:31.854Z,23.22
2023-05-23T03:03:36.511Z,23.19
2023-05-23T03:08:39.524Z,23.15
2023-05-23T03:13:42.412Z,23.13
2023-05-23T03:18:46.688Z,23.11
2023-05-23T03:23:50.245Z,23.07
2023-05-23T03:28:53.174Z,23.05
2023-05-23T03:33:57.468Z,23.03
2023-05-23T03:39:00.476Z,23.01
2023-05-23T03:44:03.997Z,22.99
2023-05-23T03:49:08.640Z,22.96
2023-05-23T03:54:12.288Z,22.94
2023-05-23T03:59:15.210Z,22.94
2023-05-23T04:04:21.070Z,22.95
2023-05-23T04:09:25.450Z,22.91
2023-05-23T04:14:29.982Z,22.93
2023-05-23T04:19:36.175Z,22.92
2023-05-23T04:24:39.353Z,22.93
2023-05-23T04:29:42.289Z,22.95
2023-05-23T04:34:46.967Z,22.95
2023-05-23T04:39:50.227Z,22.94
2023-05-23T04:45:05.121Z,22.93
2023-05-23T04:50:31.720Z,22.93
2023-05-23T04:55:35.063Z,22.91
2023-05-23T05:00:39.238Z,22.92
2023-05-23T05:05:43.804Z,22.91
2023-05-23T05:10:46.722Z,22.93
2023-05-23T05:15:52.784Z,22.94
2023-05-23T05:20:57.545Z,22.94
2023-05-23T05:26:00.619Z,22.94
2023-05-23T05:31:05.334Z,22.96
2023-05-23T05:36:12.528Z,22.99
2023-05-23T05:41:16.605Z,22.99
2023-05-23T05:46:23.900Z,22.97
2023-05-23T05:51:29.797Z,22.98
2023-05-23T05:56:32.962Z,22.99
2023-05-23T06:01:35.841Z,22.99
2023-05-23T06:06:40.108Z,22.98
2023-05-23T06:11:43.291Z,22.96
2023-05-23T06:16:46.466Z,22.98
2023-05-23T06:21:51.478Z,23.04
2023-05-23T06:26:55.512Z,23.11
2023-05-23T06:31:58.573Z,23.16
2023-05-23T06:37:03.058Z,23.19
2023-05-23T06:42:06.466Z,23.18
2023-05-23T06:47:25.627Z,23.16
2023-05-23T06:52:29.821Z,23.13
2023-05-23T06:57:33.269Z,23.13
2023-05-23T07:02:36.241Z,23.11
2023-05-23T07:07:43.464Z,23.06
2023-05-23T07:12:46.615Z,23.00
2023-05-23T07:17:51.165Z,22.97
2023-05-23T07:22:55.990Z,22.88
2023-05-23T07:27:59.768Z,22.87
2023-05-23T07:33:03.132Z,22.87
2023-05-23T07:38:08.180Z,22.83
2023-05-23T07:43:11.770Z,22.84
2023-05-23T07:48:14.696Z,22.88
2023-05-23T07:53:20.098Z,22.89
2023-05-23T07:58:23.219Z,22.93
2023-05-23T08:03:26.417Z,22.85
2023-05-23T08:08:41.269Z,21.89
2023-05-23T08:13:44.981Z,21.84
2023-05-23T08:19:11.280Z,21.58
2023-05-23T08:24:15.942Z,21.10
2023-05-23T08:29:20.358Z,20.71
2023-05-23T08:34:23.593Z,20.60
2023-05-23T08:39:27.930Z,20.18
2023-05-23T08:44:45.022Z,19.68
2023-05-23T08:49:48.115Z,19.94
2023-05-23T08:54:53.231Z,19.44
2023-05-23T08:59:56.443Z,19.71
2023-05-23T09:05:00.311Z,19.75
2023-05-23T09:10:06.184Z,19.26
2023-05-23T09:15:10.666Z,19.48
2023-05-23T09:20:14.668Z,19.80
2023-05-23T09:25:24.923Z,19.75
2023-05-23T09:30:28.009Z,19.67
2023-05-23T09:35:32.355Z,19.86
2023-05-23T09:40:37.171Z,19.94
2023-05-23T09:45:40.491Z,20.07
2023-05-23T09:50:43.457Z,19.97
2023-05-23T09:55:47.850Z,18.89
2023-05-23T10:00:51.356Z,19.79
2023-05-23T10:05:57.284Z,19.97
2023-05-23T10:11:32.939Z,19.71
2023-05-23T10:16:40.791Z,19.83
2023-05-23T10:21:46.861Z,19.71
2023-05-23T10:26:49.851Z,19.56
2023-05-23T10:31:54.058Z,19.58
2023-05-23T10:37:00.951Z,19.60
2023-05-23T10:42:07.214Z,19.42
2023-05-23T10:47:13.016Z,19.61
2023-05-23T10:52:18.201Z,19.64
2023-05-23T10:57:21.700Z,19.58
2023-05-23T11:02:29.776Z,19.62
2023-05-23T11:07:33.250Z,19.45
2023-05-23T11:12:40.046Z,18.89
2023-05-23T11:17:51.354Z,19.27
2023-05-23T11:22:54.737Z,19.34
2023-05-23T11:27:57.560Z,19.29
2023-05-23T11:33:01.916Z,19.24
2023-05-23T11:38:05.229Z,19.17
2023-05-23T11:43:09.323Z,19.06
2023-05-23T11:48:13.940Z,19.13
2023-05-23T11:53:18.768Z,18.98
2023-05-23T11:58:22.691Z,18.85
2023-05-23T12:03:27.167Z,18.72
2023-05-23T12:08:30.358Z,18.60
2023-05-23T12:13:33.376Z,18.63
2023-05-23T12:18:41.137Z,18.98
2023-05-23T12:23:44.366Z,19.46
2023-05-23T12:28:47.186Z,19.70
2023-05-23T12:33:54.120Z,19.86
2023-05-23T12:38:57.078Z,20.00
2023-05-23T12:44:00.529Z,20.09
2023-05-23T12:49:04.892Z,20.13
2023-05-23T12:54:09.275Z,20.24
2023-05-23T12:59:12.139Z,20.37
2023-05-23T13:04:16.947Z,20.42
2023-05-23T13:09:21.215Z,19.92
2023-05-23T13:14:24.381Z,20.45
2023-05-23T13:19:32.977Z,20.56
2023-05-23T13:24:47.049Z,20.62
2023-05-23T13:29:51.803Z,20.69
2023-05-23T13:34:56.610Z,20.73
2023-05-23T13:39:59.539Z,20.76
2023-05-23T13:45:05.406Z,20.81
2023-05-23T13:50:11.228Z,20.83
2023-05-23T13:55:14.255Z,20.88
2023-05-23T14:00:17.552Z,20.88
2023-05-23T14:05:22.570Z,20.90
2023-05-23T14:10:29.987Z,20.92
2023-05-23T14:15:34.617Z,20.97
2023-05-23T14:20:39.205Z,21.00
2023-05-23T14:25:42.703Z,21.01
2023-05-23T14:30:50.873Z,20.95
2023-05-23T14:35:55.696Z,21.03
2023-05-23T14:40:59.902Z,21.04
2023-05-23T14:46:03.219Z,21.06
2023-05-23T14:51:07.623Z,21.07
2023-05-23T14:56:10.746Z,21.08
2023-05-23T15:01:13.891Z,21.12
2023-05-23T15:06:18.489Z,21.16
2023-05-23T15:11:21.714Z,21.17
2023-05-23T15:16:25.417Z,21.20
2023-05-23T15:21:32.459Z,21.22
2023-05-23T15:26:36.554Z,21.24
2023-05-23T15:31:48.021Z,21.36
2023-05-23T15:36:56.310Z,21.45
2023-05-23T15:42:13.525Z,21.50
2023-05-23T15:47:22.975Z,21.52
2023-05-23T15:52:27.206Z,21.55
2023-05-23T15:57:30.394Z,21.60
2023-05-23T16:02:33.288Z,21.60
2023-05-23T16:07:37.501Z,21.63
2023-05-23T16:12:40.508Z,21.66
2023-05-23T16:17:43.474Z,21.70
2023-05-23T16:22:48.154Z,21.74
2023-05-23T16:27:51.092Z,21.77
2023-05-23T16:32:53.925Z,21.78
2023-05-23T16:37:58.113Z,21.78
2023-05-23T16:43:02.739Z,21.76
2023-05-23T16:48:06.506Z,21.81
2023-05-23T16:53:11.953Z,21.74
2023-05-23T16:58:14.907Z,21.73
2023-05-23T17:03:18.178Z,21.77
2023-05-23T17:08:22.623Z,21.78
2023-05-23T17:13:26.110Z,21.84
2023-05-23T17:18:28.947Z,21.88
2023-05-23T17:23:33.459Z,21.88
2023-05-23T17:28:36.257Z,21.89
2023-05-23T17:33:39.085Z,21.92
2023-05-23T17:38:43.649Z,21.94
2023-05-23T17:43:46.646Z,21.97
2023-05-23T17:48:49.755Z,21.98
2023-05-23T17:53:54.890Z,21.99
2023-05-23T17:58:57.862Z,21.99
2023-05-23T18:04:01.346Z,22.01
2023-05-23T18:09:06.145Z,22.05
2023-05-23T18:14:09.077Z,22.06
2023-05-23T18:19:12.460Z,22.11
2023-05-23T18:24:17.044Z,22.11
2023-05-23T18:29:20.622Z,22.13
2023-05-23T18:34:23.414Z,22.15
2023-05-23T18:39:27.681Z,22.12
2023-05-23T18:44:31.469Z,22.21
2023-05-23T18:49:34.668Z,22.23
2023-05-23T18:54:39.087Z,22.27
2023-05-23T18:59:42.365Z,22.26
2023-05-23T19:04:45.281Z,22.29
2023-05-23T19:09:49.863Z,22.29
2023-05-23T19:14:52.816Z,22.31
2023-05-23T19:19:56.295Z,22.32
2023-05-23T19:25:00.711Z,22.34
2023-05-23T19:30:03.759Z,22.36
2023-05-23T19:35:08.192Z,22.38
2023-05-23T19:40:13.432Z,22.37
2023-05-23T19:45:17.023Z,22.42
2023-05-23T19:50:21.800Z,22.44
2023-05-23T19:55:26.466Z,22.45
2023-05-23T20:00:32.038Z,22.46
2023-05-23T20:05:37.057Z,22.47
2023-05-23T20:10:43.230Z,22.50
2023-05-23T20:15:46.459Z,22.48
2023-05-23T20:20:49.315Z,22.50
2023-05-23T20:25:53.598Z,22.51
2023-05-23T20:30:56.730Z,22.52
2023-05-23T20:35:59.621Z,22.62
2023-05-23T20:41:06.414Z,22.55
2023-05-23T20:46:10.114Z,22.56
2023-05-23T20:51:13.527Z,22.50
2023-05-23T20:56:18.140Z,22.57
2023-05-23T21:01:23.056Z,22.57
2023-05-23T21:06:25.990Z,22.58
2023-05-23T21:11:30.185Z,22.58
2023-05-23T21:16:33.450Z,22.59
2023-05-23T21:21:37.482Z,22.60
2023-05-23T21:26:41.645Z,22.61
2023-05-23T21:31:44.622Z,22.61
2023-05-23T21:36:47.479Z,22.63
2023-05-23T21:41:52.006Z,22.64
2023-05-23T21:46:54.950Z,22.66
2023-05-23T21:51:57.784Z,22.63
2023-05-23T21:57:01.985Z,22.65
2023-05-23T22:02:05.539Z,22.66
2023-05-23T22:07:08.478Z,22.66
2023-05-23T22:12:13.628Z,22.66
2023-05-23T22:17:17.791Z,22.68
2023-05-23T22:22:20.679Z,22.67
2023-05-23T22:27:24.854Z,22.71
2023-05-23T22:32:27.790Z,22.76
2023-05-23T22:37:30.620Z,22.75
2023-05-23T22:42:34.933Z,22.66
2023-05-23T22:47:37.719Z,22.61
2023-05-23T22:52:40.533Z,22.59
2023-05-23T22:57:44.700Z,22.55
2023-05-23T23:02:47.628Z,22.51
2023-05-23T23:07:50.476Z,22.47
2023-05-23T23:12:54.884Z,22.44
2023-05-23T23:17:57.704Z,22.40
2023-05-23T23:23:00.598Z,22.39
2023-05-23T23:28:05.051Z,22.35
2023-05-23T23:33:07.942Z,22.31
2023-05-23T23:38:10.863Z,22.29
2023-05-23T23:43:15.019Z,22.24
2023-05-23T23:48:17.875Z,22.22
2023-05-23T23:53:21.826Z,22.18
2023-05-23T23:58:26.105Z,22.17
